sensor_id;sensor_type;location;lat;lon;timestamp;P1;durP1;ratioP1;P2;durP2;ratioP2
29854;SDS011;16733;48.738;9.106;2023-04-24T00:01:31;2.05;;;0.80;;
29854;SDS011;16733;48.738;9.106;2023-04-24T00:03:56;1.92;;;0.60;;
29854;SDS011;16733;48.738;9.106;2023-04-24T00:06:24;1.77;;;0.70;;
29854;SDS011;16733;48.738;9.106;2023-04-24T00:08:58;0.40;;;0.40;;
29854;SDS011;16733;48.738;9.106;2023-04-24T00:11:28;1.20;;;0.60;;
29854;SDS011;16733;48.738;9.106;2023-04-24T00:13:55;1.85;;;0.60;;
29854;SDS011;16733;48.738;9.106;2023-04-24T00:16:21;0.65;;;0.50;;
29854;SDS011;16733;48.738;9.106;2023-04-24T00:18:47;1.13;;;0.50;;
29854;SDS011;16733;48.738;9.106;2023-04-24T00:21:13;4.15;;;0.50;;
29854;SDS011;16733;48.738;9.106;2023-04-24T00:23:41;2.38;;;0.55;;
29854;SDS011;16733;48.738;9.106;2023-04-24T00:26:06;0.90;;;0.40;;
29854;SDS011;16733;48.738;9.106;2023-04-24T00:28:32;2.55;;;0.47;;
29854;SDS011;16733;48.738;9.106;2023-04-24T00:30:57;0.70;;;0.40;;
29854;SDS011;16733;48.738;9.106;2023-04-24T00:33:23;2.28;;;0.60;;
29854;SDS011;16733;48.738;9.106;2023-04-24T00:35:48;1.65;;;0.50;;
29854;SDS011;16733;48.738;9.106;2023-04-24T00:38:14;0.98;;;0.52;;
29854;SDS011;16733;48.738;9.106;2023-04-24T00:40:40;4.30;;;0.60;;
29854;SDS011;16733;48.738;9.106;2023-04-24T00:43:05;0.77;;;0.40;;
29854;SDS011;16733;48.738;9.106;2023-04-24T00:45:31;1.52;;;0.40;;
29854;SDS011;16733;48.738;9.106;2023-04-24T00:47:57;0.85;;;0.52;;
29854;SDS011;16733;48.738;9.106;2023-04-24T00:50:23;3.38;;;0.57;;
29854;SDS011;16733;48.738;9.106;2023-04-24T00:52:49;3.72;;;0.60;;
29854;SDS011;16733;48.738;9.106;2023-04-24T00:55:15;0.40;;;0.40;;
29854;SDS011;16733;48.738;9.106;2023-04-24T00:57:41;0.40;;;0.40;;
29854;SDS011;16733;48.738;9.106;2023-04-24T01:00:07;2.22;;;0.60;;
29854;SDS011;16733;48.738;9.106;2023-04-24T01:02:37;1.17;;;0.50;;
29854;SDS011;16733;48.738;9.106;2023-04-24T01:05:05;2.08;;;0.40;;
29854;SDS011;16733;48.738;9.106;2023-04-24T01:07:33;0.98;;;0.30;;
29854;SDS011;16733;48.738;9.106;2023-04-24T01:09:59;1.42;;;0.50;;
29854;SDS011;16733;48.738;9.106;2023-04-24T01:12:24;0.75;;;0.50;;
29854;SDS011;16733;48.738;9.106;2023-04-24T01:14:50;2.08;;;0.70;;
29854;SDS011;16733;48.738;9.106;2023-04-24T01:17:16;1.63;;;0.47;;
29854;SDS011;16733;48.738;9.106;2023-04-24T01:19:41;1.00;;;0.63;;
29854;SDS011;16733;48.738;9.106;2023-04-24T01:22:13;0.30;;;0.30;;
29854;SDS011;16733;48.738;9.106;2023-04-24T01:24:39;1.35;;;0.57;;
29854;SDS011;16733;48.738;9.106;2023-04-24T01:27:05;0.50;;;0.50;;
29854;SDS011;16733;48.738;9.106;2023-04-24T01:29:32;2.42;;;0.32;;
29854;SDS011;16733;48.738;9.106;2023-04-24T01:31:58;2.60;;;0.68;;
29854;SDS011;16733;48.738;9.106;2023-04-24T01:34:24;1.30;;;0.52;;
29854;SDS011;16733;48.738;9.106;2023-04-24T01:36:50;0.50;;;0.50;;
29854;SDS011;16733;48.738;9.106;2023-04-24T01:39:16;2.40;;;0.60;;
29854;SDS011;16733;48.738;9.106;2023-04-24T01:41:42;1.92;;;0.80;;
29854;SDS011;16733;48.738;9.106;2023-04-24T01:44:08;2.05;;;0.73;;
29854;SDS011;16733;48.738;9.106;2023-04-24T01:46:33;1.55;;;0.50;;
29854;SDS011;16733;48.738;9.106;2023-04-24T01:49:00;0.68;;;0.50;;
29854;SDS011;16733;48.738;9.106;2023-04-24T01:51:26;2.72;;;0.50;;
29854;SDS011;16733;48.738;9.106;2023-04-24T01:53:52;1.52;;;0.40;;
29854;SDS011;16733;48.738;9.106;2023-04-24T01:56:19;3.22;;;0.50;;
29854;SDS011;16733;48.738;9.106;2023-04-24T01:58:45;1.30;;;0.63;;
29854;SDS011;16733;48.738;9.106;2023-04-24T02:01:14;1.20;;;0.82;;
29854;SDS011;16733;48.738;9.106;2023-04-24T02:03:44;1.63;;;0.77;;
29854;SDS011;16733;48.738;9.106;2023-04-24T02:06:10;0.35;;;0.35;;
29854;SDS011;16733;48.738;9.106;2023-04-24T02:08:35;1.30;;;1.20;;
29854;SDS011;16733;48.738;9.106;2023-04-24T02:11:01;2.30;;;0.80;;
29854;SDS011;16733;48.738;9.106;2023-04-24T02:13:27;1.73;;;0.60;;
29854;SDS011;16733;48.738;9.106;2023-04-24T02:15:53;3.40;;;0.73;;
29854;SDS011;16733;48.738;9.106;2023-04-24T02:18:18;1.40;;;0.57;;
29854;SDS011;16733;48.738;9.106;2023-04-24T02:20:44;2.88;;;0.60;;
29854;SDS011;16733;48.738;9.106;2023-04-24T02:23:10;0.57;;;0.57;;
29854;SDS011;16733;48.738;9.106;2023-04-24T02:25:35;0.45;;;0.45;;
29854;SDS011;16733;48.738;9.106;2023-04-24T02:28:01;0.85;;;0.57;;
29854;SDS011;16733;48.738;9.106;2023-04-24T02:30:27;3.30;;;0.68;;
29854;SDS011;16733;48.738;9.106;2023-04-24T02:32:53;2.17;;;0.70;;
29854;SDS011;16733;48.738;9.106;2023-04-24T02:35:20;1.83;;;0.80;;
29854;SDS011;16733;48.738;9.106;2023-04-24T02:37:45;3.00;;;0.65;;
29854;SDS011;16733;48.738;9.106;2023-04-24T02:40:11;3.22;;;0.60;;
29854;SDS011;16733;48.738;9.106;2023-04-24T02:42:37;0.88;;;0.60;;
29854;SDS011;16733;48.738;9.106;2023-04-24T02:45:02;3.70;;;0.70;;
29854;SDS011;16733;48.738;9.106;2023-04-24T02:47:28;10.30;;;0.65;;
29854;SDS011;16733;48.738;9.106;2023-04-24T02:49:54;1.10;;;0.55;;
29854;SDS011;16733;48.738;9.106;2023-04-24T02:52:20;0.73;;;0.70;;
29854;SDS011;16733;48.738;9.106;2023-04-24T02:54:45;1.00;;;0.50;;
29854;SDS011;16733;48.738;9.106;2023-04-24T02:57:14;0.50;;;0.50;;
29854;SDS011;16733;48.738;9.106;2023-04-24T02:59:40;1.20;;;0.60;;
29854;SDS011;16733;48.738;9.106;2023-04-24T03:02:05;0.60;;;0.50;;
29854;SDS011;16733;48.738;9.106;2023-04-24T03:04:31;0.60;;;0.50;;
29854;SDS011;16733;48.738;9.106;2023-04-24T03:06:57;1.52;;;0.68;;
29854;SDS011;16733;48.738;9.106;2023-04-24T03:09:22;5.65;;;0.73;;
29854;SDS011;16733;48.738;9.106;2023-04-24T03:11:48;2.58;;;0.63;;
29854;SDS011;16733;48.738;9.106;2023-04-24T03:14:14;2.25;;;0.52;;
29854;SDS011;16733;48.738;9.106;2023-04-24T03:16:40;0.65;;;0.60;;
29854;SDS011;16733;48.738;9.106;2023-04-24T03:19:06;0.65;;;0.50;;
29854;SDS011;16733;48.738;9.106;2023-04-24T03:21:32;1.73;;;0.60;;
29854;SDS011;16733;48.738;9.106;2023-04-24T03:23:58;1.77;;;0.70;;
29854;SDS011;16733;48.738;9.106;2023-04-24T03:26:25;1.55;;;0.70;;
29854;SDS011;16733;48.738;9.106;2023-04-24T03:28:50;2.53;;;0.90;;
29854;SDS011;16733;48.738;9.106;2023-04-24T03:31:16;1.00;;;0.82;;
29854;SDS011;16733;48.738;9.106;2023-04-24T03:33:41;0.93;;;0.60;;
29854;SDS011;16733;48.738;9.106;2023-04-24T03:36:07;0.43;;;0.43;;
29854;SDS011;16733;48.738;9.106;2023-04-24T03:38:33;0.63;;;0.63;;
29854;SDS011;16733;48.738;9.106;2023-04-24T03:40:58;0.95;;;0.50;;
29854;SDS011;16733;48.738;9.106;2023-04-24T03:43:24;5.18;;;0.80;;
29854;SDS011;16733;48.738;9.106;2023-04-24T03:45:50;2.90;;;0.50;;
29854;SDS011;16733;48.738;9.106;2023-04-24T03:48:15;2.22;;;0.68;;
29854;SDS011;16733;48.738;9.106;2023-04-24T03:50:41;4.20;;;0.60;;
29854;SDS011;16733;48.738;9.106;2023-04-24T03:53:07;2.50;;;0.73;;
29854;SDS011;16733;48.738;9.106;2023-04-24T03:55:33;5.28;;;1.08;;
29854;SDS011;16733;48.738;9.106;2023-04-24T03:57:58;1.25;;;0.70;;
29854;SDS011;16733;48.738;9.106;2023-04-24T04:00:24;1.05;;;0.60;;
29854;SDS011;16733;48.738;9.106;2023-04-24T04:02:51;1.63;;;0.73;;
29854;SDS011;16733;48.738;9.106;2023-04-24T04:05:16;0.75;;;0.50;;
29854;SDS011;16733;48.738;9.106;2023-04-24T04:07:42;0.70;;;0.50;;
29854;SDS011;16733;48.738;9.106;2023-04-24T04:10:07;2.38;;;0.60;;
29854;SDS011;16733;48.738;9.106;2023-04-24T04:12:33;1.38;;;0.52;;
29854;SDS011;16733;48.738;9.106;2023-04-24T04:14:59;1.17;;;0.75;;
29854;SDS011;16733;48.738;9.106;2023-04-24T04:17:25;0.55;;;0.50;;
29854;SDS011;16733;48.738;9.106;2023-04-24T04:19:50;1.17;;;0.55;;
29854;SDS011;16733;48.738;9.106;2023-04-24T04:22:16;2.20;;;0.60;;
29854;SDS011;16733;48.738;9.106;2023-04-24T04:24:41;0.70;;;0.70;;
29854;SDS011;16733;48.738;9.106;2023-04-24T04:27:07;1.45;;;0.45;;
29854;SDS011;16733;48.738;9.106;2023-04-24T04:29:33;1.13;;;0.70;;
29854;SDS011;16733;48.738;9.106;2023-04-24T04:32:00;1.10;;;0.77;;
29854;SDS011;16733;48.738;9.106;2023-04-24T04:34:26;5.68;;;0.85;;
29854;SDS011;16733;48.738;9.106;2023-04-24T04:36:51;0.20;;;0.20;;
29854;SDS011;16733;48.738;9.106;2023-04-24T04:39:17;0.20;;;0.20;;
29854;SDS011;16733;48.738;9.106;2023-04-24T04:41:43;0.10;;;0.10;;
29854;SDS011;16733;48.738;9.106;2023-04-24T04:44:11;0.10;;;0.10;;
29854;SDS011;16733;48.738;9.106;2023-04-24T04:46:37;0.20;;;0.20;;
29854;SDS011;16733;48.738;9.106;2023-04-24T04:49:03;0.20;;;0.20;;
29854;SDS011;16733;48.738;9.106;2023-04-24T04:51:29;0.20;;;0.20;;
29854;SDS011;16733;48.738;9.106;2023-04-24T04:53:56;0.20;;;0.20;;
29854;SDS011;16733;48.738;9.106;2023-04-24T04:56:21;0.20;;;0.20;;
29854;SDS011;16733;48.738;9.106;2023-04-24T04:58:47;0.20;;;0.20;;
29854;SDS011;16733;48.738;9.106;2023-04-24T05:01:12;0.20;;;0.20;;
29854;SDS011;16733;48.738;9.106;2023-04-24T05:03:38;0.20;;;0.20;;
29854;SDS011;16733;48.738;9.106;2023-04-24T05:06:04;0.10;;;0.10;;
29854;SDS011;16733;48.738;9.106;2023-04-24T05:08:29;0.20;;;0.20;;
29854;SDS011;16733;48.738;9.106;2023-04-24T05:10:55;0.20;;;0.20;;
29854;SDS011;16733;48.738;9.106;2023-04-24T05:13:21;0.20;;;0.20;;
29854;SDS011;16733;48.738;9.106;2023-04-24T05:15:46;0.20;;;0.20;;
29854;SDS011;16733;48.738;9.106;2023-04-24T05:18:12;0.20;;;0.20;;
29854;SDS011;16733;48.738;9.106;2023-04-24T05:20:41;0.10;;;0.10;;
29854;SDS011;16733;48.738;9.106;2023-04-24T05:23:08;0.20;;;0.20;;
29854;SDS011;16733;48.738;9.106;2023-04-24T05:25:34;0.20;;;0.20;;
29854;SDS011;16733;48.738;9.106;2023-04-24T05:28:01;0.20;;;0.20;;
29854;SDS011;16733;48.738;9.106;2023-04-24T05:30:27;0.10;;;0.10;;
29854;SDS011;16733;48.738;9.106;2023-04-24T05:32:52;0.20;;;0.20;;
29854;SDS011;16733;48.738;9.106;2023-04-24T05:35:18;0.17;;;0.17;;
29854;SDS011;16733;48.738;9.106;2023-04-24T05:37:44;0.10;;;0.10;;
29854;SDS011;16733;48.738;9.106;2023-04-24T05:40:10;0.20;;;0.20;;
29854;SDS011;16733;48.738;9.106;2023-04-24T05:42:36;0.20;;;0.20;;
29854;SDS011;16733;48.738;9.106;2023-04-24T05:45:01;0.20;;;0.20;;
29854;SDS011;16733;48.738;9.106;2023-04-24T05:47:27;0.20;;;0.20;;
29854;SDS011;16733;48.738;9.106;2023-04-24T05:49:53;0.20;;;0.20;;
29854;SDS011;16733;48.738;9.106;2023-04-24T05:52:18;0.20;;;0.20;;
29854;SDS011;16733;48.738;9.106;2023-04-24T05:54:44;0.20;;;0.20;;
29854;SDS011;16733;48.738;9.106;2023-04-24T05:57:10;0.10;;;0.10;;
29854;SDS011;16733;48.738;9.106;2023-04-24T05:59:38;1.02;;;0.68;;
29854;SDS011;16733;48.738;9.106;2023-04-24T06:02:05;0.20;;;0.20;;
29854;SDS011;16733;48.738;9.106;2023-04-24T06:04:32;0.10;;;0.10;;
29854;SDS011;16733;48.738;9.106;2023-04-24T06:06:57;0.20;;;0.20;;
29854;SDS011;16733;48.738;9.106;2023-04-24T06:09:24;0.10;;;0.10;;
29854;SDS011;16733;48.738;9.106;2023-04-24T06:11:50;0.20;;;0.20;;
29854;SDS011;16733;48.738;9.106;2023-04-24T06:14:18;0.15;;;0.15;;
29854;SDS011;16733;48.738;9.106;2023-04-24T06:16:43;0.20;;;0.20;;
29854;SDS011;16733;48.738;9.106;2023-04-24T06:19:09;0.20;;;0.20;;
29854;SDS011;16733;48.738;9.106;2023-04-24T06:21:35;0.10;;;0.10;;
29854;SDS011;16733;48.738;9.106;2023-04-24T06:24:00;0.13;;;0.13;;
29854;SDS011;16733;48.738;9.106;2023-04-24T06:26:26;0.20;;;0.20;;
29854;SDS011;16733;48.738;9.106;2023-04-24T06:28:52;0.20;;;0.20;;
29854;SDS011;16733;48.738;9.106;2023-04-24T06:31:23;0.15;;;0.15;;
29854;SDS011;16733;48.738;9.106;2023-04-24T06:33:49;0.20;;;0.20;;
29854;SDS011;16733;48.738;9.106;2023-04-24T06:36:14;0.28;;;0.28;;
29854;SDS011;16733;48.738;9.106;2023-04-24T06:38:40;0.20;;;0.20;;
29854;SDS011;16733;48.738;9.106;2023-04-24T06:41:06;0.20;;;0.20;;
29854;SDS011;16733;48.738;9.106;2023-04-24T06:43:32;0.10;;;0.10;;
29854;SDS011;16733;48.738;9.106;2023-04-24T06:45:58;0.20;;;0.20;;
29854;SDS011;16733;48.738;9.106;2023-04-24T06:48:24;0.10;;;0.10;;
29854;SDS011;16733;48.738;9.106;2023-04-24T06:50:50;0.20;;;0.20;;
29854;SDS011;16733;48.738;9.106;2023-04-24T06:53:16;0.13;;;0.13;;
29854;SDS011;16733;48.738;9.106;2023-04-24T06:55:42;0.20;;;0.20;;
29854;SDS011;16733;48.738;9.106;2023-04-24T06:58:09;0.10;;;0.10;;
29854;SDS011;16733;48.738;9.106;2023-04-24T07:00:35;0.20;;;0.20;;
29854;SDS011;16733;48.738;9.106;2023-04-24T07:03:01;0.10;;;0.10;;
29854;SDS011;16733;48.738;9.106;2023-04-24T07:05:27;0.10;;;0.10;;
29854;SDS011;16733;48.738;9.106;2023-04-24T07:07:53;0.10;;;0.10;;
29854;SDS011;16733;48.738;9.106;2023-04-24T07:10:18;0.20;;;0.20;;
29854;SDS011;16733;48.738;9.106;2023-04-24T07:12:45;0.30;;;0.30;;
29854;SDS011;16733;48.738;9.106;2023-04-24T07:15:11;0.10;;;0.10;;
29854;SDS011;16733;48.738;9.106;2023-04-24T07:17:37;0.10;;;0.10;;
29854;SDS011;16733;48.738;9.106;2023-04-24T07:20:03;0.20;;;0.20;;
29854;SDS011;16733;48.738;9.106;2023-04-24T07:22:30;0.10;;;0.10;;
29854;SDS011;16733;48.738;9.106;2023-04-24T07:24:56;0.10;;;0.10;;
29854;SDS011;16733;48.738;9.106;2023-04-24T07:27:21;0.10;;;0.10;;
29854;SDS011;16733;48.738;9.106;2023-04-24T07:29:47;0.10;;;0.10;;
29854;SDS011;16733;48.738;9.106;2023-04-24T07:32:13;0.10;;;0.10;;
29854;SDS011;16733;48.738;9.106;2023-04-24T07:34:39;0.20;;;0.20;;
29854;SDS011;16733;48.738;9.106;2023-04-24T07:37:05;0.20;;;0.20;;
29854;SDS011;16733;48.738;9.106;2023-04-24T07:39:31;0.10;;;0.10;;
29854;SDS011;16733;48.738;9.106;2023-04-24T07:41:56;0.20;;;0.20;;
29854;SDS011;16733;48.738;9.106;2023-04-24T07:44:24;0.10;;;0.10;;
29854;SDS011;16733;48.738;9.106;2023-04-24T07:46:52;0.10;;;0.10;;
29854;SDS011;16733;48.738;9.106;2023-04-24T07:49:18;0.20;;;0.20;;
29854;SDS011;16733;48.738;9.106;2023-04-24T07:51:44;0.10;;;0.10;;
29854;SDS011;16733;48.738;9.106;2023-04-24T07:54:10;0.10;;;0.10;;
29854;SDS011;16733;48.738;9.106;2023-04-24T07:56:35;0.10;;;0.10;;
29854;SDS011;16733;48.738;9.106;2023-04-24T07:59:03;0.20;;;0.20;;
29854;SDS011;16733;48.738;9.106;2023-04-24T08:01:29;0.10;;;0.10;;
29854;SDS011;16733;48.738;9.106;2023-04-24T08:03:55;0.22;;;0.22;;
29854;SDS011;16733;48.738;9.106;2023-04-24T08:06:21;0.10;;;0.10;;
29854;SDS011;16733;48.738;9.106;2023-04-24T08:08:47;0.10;;;0.10;;
29854;SDS011;16733;48.738;9.106;2023-04-24T08:11:12;0.10;;;0.10;;
29854;SDS011;16733;48.738;9.106;2023-04-24T08:13:38;0.10;;;0.10;;
29854;SDS011;16733;48.738;9.106;2023-04-24T08:16:03;0.10;;;0.10;;
29854;SDS011;16733;48.738;9.106;2023-04-24T08:18:29;0.20;;;0.20;;
29854;SDS011;16733;48.738;9.106;2023-04-24T08:20:55;0.20;;;0.20;;
29854;SDS011;16733;48.738;9.106;2023-04-24T08:23:26;0.10;;;0.10;;
29854;SDS011;16733;48.738;9.106;2023-04-24T08:25:51;2.10;;;1.25;;
29854;SDS011;16733;48.738;9.106;2023-04-24T08:28:17;2.53;;;1.08;;
29854;SDS011;16733;48.738;9.106;2023-04-24T08:30:45;1.77;;;1.20;;
29854;SDS011;16733;48.738;9.106;2023-04-24T08:33:12;1.63;;;1.02;;
29854;SDS011;16733;48.738;9.106;2023-04-24T08:35:37;4.45;;;1.30;;
29854;SDS011;16733;48.738;9.106;2023-04-24T08:38:03;1.15;;;0.90;;
29854;SDS011;16733;48.738;9.106;2023-04-24T08:40:29;3.65;;;1.10;;
29854;SDS011;16733;48.738;9.106;2023-04-24T08:42:59;0.95;;;0.82;;
29854;SDS011;16733;48.738;9.106;2023-04-24T08:45:25;6.00;;;1.10;;
29854;SDS011;16733;48.738;9.106;2023-04-24T08:47:52;6.85;;;1.20;;
29854;SDS011;16733;48.738;9.106;2023-04-24T08:50:19;1.38;;;1.10;;
29854;SDS011;16733;48.738;9.106;2023-04-24T08:52:46;1.88;;;1.08;;
29854;SDS011;16733;48.738;9.106;2023-04-24T08:55:14;1.27;;;1.15;;
29854;SDS011;16733;48.738;9.106;2023-04-24T08:57:43;1.88;;;1.08;;
29854;SDS011;16733;48.738;9.106;2023-04-24T09:00:10;1.92;;;1.02;;
29854;SDS011;16733;48.738;9.106;2023-04-24T09:02:36;7.68;;;1.40;;
29854;SDS011;16733;48.738;9.106;2023-04-24T09:05:04;1.52;;;1.00;;
29854;SDS011;16733;48.738;9.106;2023-04-24T09:07:30;1.00;;;0.80;;
29854;SDS011;16733;48.738;9.106;2023-04-24T09:09:59;2.00;;;1.00;;
29854;SDS011;16733;48.738;9.106;2023-04-24T09:12:26;1.92;;;0.90;;
29854;SDS011;16733;48.738;9.106;2023-04-24T09:14:52;0.98;;;0.90;;
29854;SDS011;16733;48.738;9.106;2023-04-24T09:17:19;1.02;;;0.95;;
29854;SDS011;16733;48.738;9.106;2023-04-24T09:19:47;3.03;;;0.90;;
29854;SDS011;16733;48.738;9.106;2023-04-24T09:22:13;1.67;;;0.95;;
29854;SDS011;16733;48.738;9.106;2023-04-24T09:24:40;1.15;;;0.85;;
29854;SDS011;16733;48.738;9.106;2023-04-24T09:27:06;2.58;;;0.95;;
29854;SDS011;16733;48.738;9.106;2023-04-24T09:29:32;1.45;;;0.68;;
29854;SDS011;16733;48.738;9.106;2023-04-24T09:31:58;5.15;;;0.85;;
29854;SDS011;16733;48.738;9.106;2023-04-24T09:34:27;1.05;;;0.73;;
29854;SDS011;16733;48.738;9.106;2023-04-24T09:36:53;0.77;;;0.77;;
29854;SDS011;16733;48.738;9.106;2023-04-24T09:39:19;3.92;;;1.00;;
29854;SDS011;16733;48.738;9.106;2023-04-24T09:41:46;2.17;;;0.95;;
29854;SDS011;16733;48.738;9.106;2023-04-24T09:44:17;1.17;;;0.70;;
29854;SDS011;16733;48.738;9.106;2023-04-24T09:46:45;1.05;;;0.50;;
29854;SDS011;16733;48.738;9.106;2023-04-24T09:49:15;0.70;;;0.70;;
29854;SDS011;16733;48.738;9.106;2023-04-24T09:51:45;3.03;;;0.90;;
29854;SDS011;16733;48.738;9.106;2023-04-24T09:54:13;0.80;;;0.52;;
29854;SDS011;16733;48.738;9.106;2023-04-24T09:56:47;1.50;;;0.60;;
29854;SDS011;16733;48.738;9.106;2023-04-24T09:59:15;2.50;;;0.50;;
29854;SDS011;16733;48.738;9.106;2023-04-24T10:01:41;1.40;;;0.73;;
29854;SDS011;16733;48.738;9.106;2023-04-24T10:04:19;1.60;;;0.70;;
29854;SDS011;16733;48.738;9.106;2023-04-24T10:06:49;0.75;;;0.70;;
29854;SDS011;16733;48.738;9.106;2023-04-24T10:09:17;0.65;;;0.55;;
29854;SDS011;16733;48.738;9.106;2023-04-24T10:11:49;2.00;;;0.82;;
29854;SDS011;16733;48.738;9.106;2023-04-24T10:14:16;0.75;;;0.75;;
29854;SDS011;16733;48.738;9.106;2023-04-24T10:16:45;1.38;;;0.80;;
29854;SDS011;16733;48.738;9.106;2023-04-24T10:19:12;1.00;;;0.68;;
29854;SDS011;16733;48.738;9.106;2023-04-24T10:21:39;2.20;;;0.80;;
29854;SDS011;16733;48.738;9.106;2023-04-24T10:24:16;1.15;;;0.57;;
29854;SDS011;16733;48.738;9.106;2023-04-24T10:26:43;1.23;;;0.80;;
29854;SDS011;16733;48.738;9.106;2023-04-24T10:29:11;2.42;;;0.68;;
29854;SDS011;16733;48.738;9.106;2023-04-24T10:31:40;8.13;;;1.48;;
29854;SDS011;16733;48.738;9.106;2023-04-24T10:34:07;1.50;;;0.85;;
29854;SDS011;16733;48.738;9.106;2023-04-24T10:36:34;2.90;;;0.80;;
29854;SDS011;16733;48.738;9.106;2023-04-24T10:39:02;1.85;;;1.00;;
29854;SDS011;16733;48.738;9.106;2023-04-24T10:41:36;0.75;;;0.63;;
29854;SDS011;16733;48.738;9.106;2023-04-24T10:44:09;0.68;;;0.60;;
29854;SDS011;16733;48.738;9.106;2023-04-24T10:46:44;1.67;;;0.73;;
29854;SDS011;16733;48.738;9.106;2023-04-24T10:49:12;1.08;;;0.82;;
29854;SDS011;16733;48.738;9.106;2023-04-24T10:51:50;0.73;;;0.73;;
29854;SDS011;16733;48.738;9.106;2023-04-24T10:54:25;1.05;;;0.73;;
29854;SDS011;16733;48.738;9.106;2023-04-24T10:59:26;0.52;;;0.47;;
29854;SDS011;16733;48.738;9.106;2023-04-24T11:04:32;1.88;;;0.70;;
29854;SDS011;16733;48.738;9.106;2023-04-24T11:06:58;2.30;;;0.75;;
29854;SDS011;16733;48.738;9.106;2023-04-24T11:09:27;2.15;;;0.60;;
29854;SDS011;16733;48.738;9.106;2023-04-24T11:12:07;1.48;;;0.70;;
29854;SDS011;16733;48.738;9.106;2023-04-24T11:17:35;3.55;;;0.55;;
29854;SDS011;16733;48.738;9.106;2023-04-24T11:22:42;1.42;;;0.80;;
29854;SDS011;16733;48.738;9.106;2023-04-24T11:25:10;1.30;;;0.63;;
29854;SDS011;16733;48.738;9.106;2023-04-24T11:27:40;1.20;;;0.60;;
29854;SDS011;16733;48.738;9.106;2023-04-24T11:30:07;0.80;;;0.70;;
29854;SDS011;16733;48.738;9.106;2023-04-24T11:32:41;0.80;;;0.70;;
29854;SDS011;16733;48.738;9.106;2023-04-24T11:35:14;1.67;;;0.80;;
29854;SDS011;16733;48.738;9.106;2023-04-24T11:37:42;1.00;;;0.73;;
29854;SDS011;16733;48.738;9.106;2023-04-24T11:40:16;2.17;;;0.82;;
29854;SDS011;16733;48.738;9.106;2023-04-24T11:42:45;1.33;;;0.60;;
29854;SDS011;16733;48.738;9.106;2023-04-24T11:47:40;1.90;;;0.90;;
29854;SDS011;16733;48.738;9.106;2023-04-24T11:50:08;2.35;;;0.90;;
29854;SDS011;16733;48.738;9.106;2023-04-24T11:52:57;3.17;;;0.80;;
29854;SDS011;16733;48.738;9.106;2023-04-24T11:57:49;1.27;;;0.70;;
29854;SDS011;16733;48.738;9.106;2023-04-24T12:02:46;1.27;;;0.80;;
29854;SDS011;16733;48.738;9.106;2023-04-24T12:05:25;2.10;;;0.90;;
29854;SDS011;16733;48.738;9.106;2023-04-24T12:07:52;1.42;;;0.85;;
29854;SDS011;16733;48.738;9.106;2023-04-24T12:10:21;5.93;;;1.00;;
29854;SDS011;16733;48.738;9.106;2023-04-24T12:12:50;1.08;;;0.75;;
29854;SDS011;16733;48.738;9.106;2023-04-24T12:15:17;0.77;;;0.77;;
29854;SDS011;16733;48.738;9.106;2023-04-24T12:17:45;1.45;;;0.95;;
29854;SDS011;16733;48.738;9.106;2023-04-24T12:20:11;2.55;;;0.90;;
29854;SDS011;16733;48.738;9.106;2023-04-24T12:25:10;1.80;;;0.90;;
29854;SDS011;16733;48.738;9.106;2023-04-24T12:27:36;1.70;;;1.10;;
29854;SDS011;16733;48.738;9.106;2023-04-24T12:30:03;3.80;;;0.80;;
29854;SDS011;16733;48.738;9.106;2023-04-24T12:32:30;1.85;;;1.00;;
29854;SDS011;16733;48.738;9.106;2023-04-24T12:34:57;1.70;;;0.90;;
29854;SDS011;16733;48.738;9.106;2023-04-24T12:37:26;3.13;;;1.00;;
29854;SDS011;16733;48.738;9.106;2023-04-24T12:42:33;0.80;;;0.80;;
29854;SDS011;16733;48.738;9.106;2023-04-24T12:45:04;1.02;;;0.75;;
29854;SDS011;16733;48.738;9.106;2023-04-24T12:47:31;2.22;;;0.90;;
29854;SDS011;16733;48.738;9.106;2023-04-24T12:49:58;1.05;;;0.82;;
29854;SDS011;16733;48.738;9.106;2023-04-24T12:52:24;1.35;;;0.68;;
29854;SDS011;16733;48.738;9.106;2023-04-24T12:54:54;1.15;;;0.70;;
29854;SDS011;16733;48.738;9.106;2023-04-24T12:57:22;1.85;;;0.80;;
29854;SDS011;16733;48.738;9.106;2023-04-24T12:59:48;1.17;;;0.70;;
29854;SDS011;16733;48.738;9.106;2023-04-24T13:02:14;0.80;;;0.73;;
29854;SDS011;16733;48.738;9.106;2023-04-24T13:04:46;1.70;;;0.80;;
29854;SDS011;16733;48.738;9.106;2023-04-24T13:07:12;1.08;;;0.90;;
29854;SDS011;16733;48.738;9.106;2023-04-24T13:09:39;2.42;;;0.90;;
29854;SDS011;16733;48.738;9.106;2023-04-24T13:12:06;0.88;;;0.80;;
29854;SDS011;16733;48.738;9.106;2023-04-24T13:14:32;1.67;;;0.88;;
29854;SDS011;16733;48.738;9.106;2023-04-24T13:16:58;1.40;;;1.02;;
29854;SDS011;16733;48.738;9.106;2023-04-24T13:19:26;2.40;;;0.88;;
29854;SDS011;16733;48.738;9.106;2023-04-24T13:21:53;1.13;;;0.93;;
29854;SDS011;16733;48.738;9.106;2023-04-24T13:24:21;4.20;;;1.30;;
29854;SDS011;16733;48.738;9.106;2023-04-24T13:26:49;1.65;;;0.88;;
29854;SDS011;16733;48.738;9.106;2023-04-24T13:29:15;1.90;;;1.23;;
29854;SDS011;16733;48.738;9.106;2023-04-24T13:31:41;1.00;;;0.80;;
29854;SDS011;16733;48.738;9.106;2023-04-24T13:34:07;1.88;;;1.00;;
29854;SDS011;16733;48.738;9.106;2023-04-24T13:36:32;0.93;;;0.90;;
29854;SDS011;16733;48.738;9.106;2023-04-24T13:38:58;6.95;;;0.93;;
29854;SDS011;16733;48.738;9.106;2023-04-24T13:41:23;3.55;;;0.98;;
29854;SDS011;16733;48.738;9.106;2023-04-24T13:43:49;1.55;;;1.20;;
29854;SDS011;16733;48.738;9.106;2023-04-24T13:46:15;1.02;;;0.82;;
29854;SDS011;16733;48.738;9.106;2023-04-24T13:48:41;1.50;;;0.90;;
29854;SDS011;16733;48.738;9.106;2023-04-24T13:51:06;1.58;;;0.80;;
29854;SDS011;16733;48.738;9.106;2023-04-24T13:53:32;1.13;;;1.02;;
29854;SDS011;16733;48.738;9.106;2023-04-24T13:56:01;3.95;;;1.38;;
29854;SDS011;16733;48.738;9.106;2023-04-24T13:58:27;4.00;;;2.03;;
29854;SDS011;16733;48.738;9.106;2023-04-24T14:00:52;6.60;;;4.18;;
29854;SDS011;16733;48.738;9.106;2023-04-24T14:03:18;6.30;;;4.22;;
29854;SDS011;16733;48.738;9.106;2023-04-24T14:05:44;3.75;;;2.47;;
29854;SDS011;16733;48.738;9.106;2023-04-24T14:08:09;1.50;;;1.00;;
29854;SDS011;16733;48.738;9.106;2023-04-24T14:10:35;2.45;;;1.20;;
29854;SDS011;16733;48.738;9.106;2023-04-24T14:13:00;2.20;;;1.23;;
29854;SDS011;16733;48.738;9.106;2023-04-24T14:15:26;1.48;;;1.30;;
29854;SDS011;16733;48.738;9.106;2023-04-24T14:17:52;1.17;;;1.00;;
29854;SDS011;16733;48.738;9.106;2023-04-24T14:20:17;2.40;;;1.20;;
29854;SDS011;16733;48.738;9.106;2023-04-24T14:22:43;2.65;;;1.10;;
29854;SDS011;16733;48.738;9.106;2023-04-24T14:25:08;3.53;;;1.38;;
29854;SDS011;16733;48.738;9.106;2023-04-24T14:27:34;2.13;;;1.02;;
29854;SDS011;16733;48.738;9.106;2023-04-24T14:30:00;1.90;;;0.98;;
29854;SDS011;16733;48.738;9.106;2023-04-24T14:32:26;2.33;;;1.20;;
29854;SDS011;16733;48.738;9.106;2023-04-24T14:34:51;1.20;;;1.10;;
29854;SDS011;16733;48.738;9.106;2023-04-24T14:37:17;1.80;;;1.08;;
29854;SDS011;16733;48.738;9.106;2023-04-24T14:39:43;3.53;;;1.05;;
29854;SDS011;16733;48.738;9.106;2023-04-24T14:42:08;1.40;;;1.30;;
29854;SDS011;16733;48.738;9.106;2023-04-24T14:44:34;1.83;;;1.30;;
29854;SDS011;16733;48.738;9.106;2023-04-24T14:47:00;3.22;;;1.50;;
29854;SDS011;16733;48.738;9.106;2023-04-24T14:49:25;2.78;;;1.88;;
29854;SDS011;16733;48.738;9.106;2023-04-24T14:51:51;3.35;;;1.65;;
29854;SDS011;16733;48.738;9.106;2023-04-24T14:54:17;1.60;;;1.50;;
29854;SDS011;16733;48.738;9.106;2023-04-24T14:56:42;3.80;;;2.17;;
29854;SDS011;16733;48.738;9.106;2023-04-24T14:59:09;3.08;;;2.00;;
29854;SDS011;16733;48.738;9.106;2023-04-24T15:01:35;2.10;;;1.65;;
29854;SDS011;16733;48.738;9.106;2023-04-24T15:04:00;2.25;;;1.55;;
29854;SDS011;16733;48.738;9.106;2023-04-24T15:06:26;3.38;;;2.05;;
29854;SDS011;16733;48.738;9.106;2023-04-24T15:08:52;5.45;;;3.15;;